sensor_id;sensor_type;location;lat;lon;timestamp;P1;durP1;ratioP1;P2;durP2;ratioP2
2023;SDS011;1016;48.770;9.154;2023-02-08T00:00:59;27.57;;;8.70;;
2023;SDS011;1016;48.770;9.154;2023-02-08T00:03:30;27.10;;;9.07;;
2023;SDS011;1016;48.770;9.154;2023-02-08T00:05:55;25.57;;;9.00;;
2023;SDS011;1016;48.770;9.154;2023-02-08T00:08:21;26.60;;;8.53;;
2023;SDS011;1016;48.770;9.154;2023-02-08T00:10:46;25.33;;;8.83;;
2023;SDS011;1016;48.770;9.154;2023-02-08T00:13:13;26.30;;;9.70;;
2023;SDS011;1016;48.770;9.154;2023-02-08T00:15:42;28.23;;;9.17;;
2023;SDS011;1016;48.770;9.154;2023-02-08T00:18:08;27.13;;;9.50;;
2023;SDS011;1016;48.770;9.154;2023-02-08T00:20:36;25.30;;;8.60;;
2023;SDS011;1016;48.770;9.154;2023-02-08T00:23:02;28.10;;;10.40;;
2023;SDS011;1016;48.770;9.154;2023-02-08T00:25:28;27.07;;;8.97;;
2023;SDS011;1016;48.770;9.154;2023-02-08T00:27:53;24.73;;;8.40;;
2023;SDS011;1016;48.770;9.154;2023-02-08T00:30:19;26.40;;;8.87;;
2023;SDS011;1016;48.770;9.154;2023-02-08T00:32:44;26.03;;;8.90;;
2023;SDS011;1016;48.770;9.154;2023-02-08T00:35:10;28.00;;;9.40;;
2023;SDS011;1016;48.770;9.154;2023-02-08T00:37:35;26.27;;;9.10;;
2023;SDS011;1016;48.770;9.154;2023-02-08T00:40:01;25.40;;;8.57;;
2023;SDS011;1016;48.770;9.154;2023-02-08T00:42:27;28.17;;;9.43;;
2023;SDS011;1016;48.770;9.154;2023-02-08T00:44:54;25.40;;;9.10;;
2023;SDS011;1016;48.770;9.154;2023-02-08T00:47:19;25.60;;;8.70;;
2023;SDS011;1016;48.770;9.154;2023-02-08T00:49:45;26.47;;;9.03;;
2023;SDS011;1016;48.770;9.154;2023-02-08T00:52:10;26.23;;;9.40;;
2023;SDS011;1016;48.770;9.154;2023-02-08T00:54:35;26.47;;;8.60;;
2023;SDS011;1016;48.770;9.154;2023-02-08T00:57:01;25.17;;;8.60;;
2023;SDS011;1016;48.770;9.154;2023-02-08T00:59:26;28.17;;;9.17;;
2023;SDS011;1016;48.770;9.154;2023-02-08T01:01:52;28.53;;;8.97;;
2023;SDS011;1016;48.770;9.154;2023-02-08T01:04:18;27.70;;;8.47;;
2023;SDS011;1016;48.770;9.154;2023-02-08T01:06:43;26.50;;;9.40;;
2023;SDS011;1016;48.770;9.154;2023-02-08T01:09:09;25.93;;;8.93;;
2023;SDS011;1016;48.770;9.154;2023-02-08T01:11:34;25.57;;;8.60;;
2023;SDS011;1016;48.770;9.154;2023-02-08T01:14:00;26.80;;;9.00;;
2023;SDS011;1016;48.770;9.154;2023-02-08T01:16:26;26.20;;;8.80;;
2023;SDS011;1016;48.770;9.154;2023-02-08T01:18:54;25.37;;;8.80;;
2023;SDS011;1016;48.770;9.154;2023-02-08T01:21:22;29.30;;;8.77;;
2023;SDS011;1016;48.770;9.154;2023-02-08T01:23:50;24.20;;;8.73;;
2023;SDS011;1016;48.770;9.154;2023-02-08T01:26:16;26.27;;;8.90;;
2023;SDS011;1016;48.770;9.154;2023-02-08T01:28:42;26.40;;;9.10;;
2023;SDS011;1016;48.770;9.154;2023-02-08T01:31:09;28.20;;;8.63;;
2023;SDS011;1016;48.770;9.154;2023-02-08T01:33:36;25.23;;;8.33;;
2023;SDS011;1016;48.770;9.154;2023-02-08T01:36:02;25.20;;;8.20;;
2023;SDS011;1016;48.770;9.154;2023-02-08T01:38:28;26.00;;;8.27;;
2023;SDS011;1016;48.770;9.154;2023-02-08T01:40:54;26.30;;;8.87;;
2023;SDS011;1016;48.770;9.154;2023-02-08T01:43:28;25.17;;;8.43;;
2023;SDS011;1016;48.770;9.154;2023-02-08T01:45:59;26.20;;;8.37;;
2023;SDS011;1016;48.770;9.154;2023-02-08T01:48:29;24.40;;;7.80;;
2023;SDS011;1016;48.770;9.154;2023-02-08T01:51:00;26.20;;;8.87;;
2023;SDS011;1016;48.770;9.154;2023-02-08T01:53:29;25.17;;;8.47;;
2023;SDS011;1016;48.770;9.154;2023-02-08T01:55:58;24.53;;;8.30;;
2023;SDS011;1016;48.770;9.154;2023-02-08T01:58:27;24.37;;;7.53;;
2023;SDS011;1016;48.770;9.154;2023-02-08T02:00:54;25.63;;;8.40;;
2023;SDS011;1016;48.770;9.154;2023-02-08T02:03:20;24.93;;;8.50;;
2023;SDS011;1016;48.770;9.154;2023-02-08T02:05:50;26.37;;;8.50;;
2023;SDS011;1016;48.770;9.154;2023-02-08T02:08:19;24.50;;;7.83;;
2023;SDS011;1016;48.770;9.154;2023-02-08T02:10:46;23.40;;;7.93;;
2023;SDS011;1016;48.770;9.154;2023-02-08T02:13:14;26.77;;;8.10;;
2023;SDS011;1016;48.770;9.154;2023-02-08T02:15:43;24.97;;;7.90;;
2023;SDS011;1016;48.770;9.154;2023-02-08T02:18:10;28.50;;;8.20;;
2023;SDS011;1016;48.770;9.154;2023-02-08T02:23:15;25.00;;;7.60;;
2023;SDS011;1016;48.770;9.154;2023-02-08T02:32:21;24.57;;;7.53;;
2023;SDS011;1016;48.770;9.154;2023-02-08T02:35:19;24.80;;;7.40;;
2023;SDS011;1016;48.770;9.154;2023-02-08T02:38:06;26.03;;;7.63;;
2023;SDS011;1016;48.770;9.154;2023-02-08T02:44:06;24.80;;;7.47;;
2023;SDS011;1016;48.770;9.154;2023-02-08T02:46:45;24.50;;;7.83;;
2023;SDS011;1016;48.770;9.154;2023-02-08T02:52:00;24.63;;;7.90;;
2023;SDS011;1016;48.770;9.154;2023-02-08T02:54:52;25.30;;;8.33;;
2023;SDS011;1016;48.770;9.154;2023-02-08T02:57:30;26.00;;;7.90;;
2023;SDS011;1016;48.770;9.154;2023-02-08T02:59:57;25.90;;;8.40;;
2023;SDS011;1016;48.770;9.154;2023-02-08T03:02:24;24.67;;;7.90;;
2023;SDS011;1016;48.770;9.154;2023-02-08T03:04:52;25.23;;;8.33;;
2023;SDS011;1016;48.770;9.154;2023-02-08T03:18:19;24.70;;;7.90;;
2023;SDS011;1016;48.770;9.154;2023-02-08T03:20:49;26.30;;;8.40;;
2023;SDS011;1016;48.770;9.154;2023-02-08T03:23:35;24.60;;;8.67;;
2023;SDS011;1016;48.770;9.154;2023-02-08T03:26:15;25.90;;;8.00;;
2023;SDS011;1016;48.770;9.154;2023-02-08T03:31:29;25.90;;;7.97;;
2023;SDS011;1016;48.770;9.154;2023-02-08T03:34:02;24.00;;;7.60;;
2023;SDS011;1016;48.770;9.154;2023-02-08T03:36:47;25.47;;;8.20;;
2023;SDS011;1016;48.770;9.154;2023-02-08T03:39:25;24.93;;;8.23;;
2023;SDS011;1016;48.770;9.154;2023-02-08T03:41:58;27.77;;;8.20;;
2023;SDS011;1016;48.770;9.154;2023-02-08T03:44:32;25.77;;;8.33;;
2023;SDS011;1016;48.770;9.154;2023-02-08T03:47:04;26.20;;;8.60;;
2023;SDS011;1016;48.770;9.154;2023-02-08T03:49:34;26.77;;;7.93;;
2023;SDS011;1016;48.770;9.154;2023-02-08T03:52:02;27.73;;;9.03;;
2023;SDS011;1016;48.770;9.154;2023-02-08T03:54:32;26.60;;;8.53;;
2023;SDS011;1016;48.770;9.154;2023-02-08T03:57:16;26.10;;;8.40;;
2023;SDS011;1016;48.770;9.154;2023-02-08T03:59:51;24.90;;;8.20;;
2023;SDS011;1016;48.770;9.154;2023-02-08T04:02:23;26.90;;;8.97;;
2023;SDS011;1016;48.770;9.154;2023-02-08T04:04:52;28.43;;;8.87;;
2023;SDS011;1016;48.770;9.154;2023-02-08T04:07:19;27.13;;;8.70;;
2023;SDS011;1016;48.770;9.154;2023-02-08T04:09:45;27.60;;;8.57;;
2023;SDS011;1016;48.770;9.154;2023-02-08T04:12:10;25.80;;;8.50;;
2023;SDS011;1016;48.770;9.154;2023-02-08T04:14:36;24.73;;;8.23;;
2023;SDS011;1016;48.770;9.154;2023-02-08T04:17:02;25.60;;;8.40;;
2023;SDS011;1016;48.770;9.154;2023-02-08T04:19:27;25.60;;;8.10;;
2023;SDS011;1016;48.770;9.154;2023-02-08T04:21:53;25.23;;;8.33;;
2023;SDS011;1016;48.770;9.154;2023-02-08T04:24:18;26.30;;;8.93;;
2023;SDS011;1016;48.770;9.154;2023-02-08T04:26:44;27.70;;;8.10;;
2023;SDS011;1016;48.770;9.154;2023-02-08T04:29:10;26.20;;;9.20;;
2023;SDS011;1016;48.770;9.154;2023-02-08T04:31:36;24.53;;;7.60;;
2023;SDS011;1016;48.770;9.154;2023-02-08T04:34:01;26.20;;;7.93;;
2023;SDS011;1016;48.770;9.154;2023-02-08T04:36:27;26.17;;;9.20;;
2023;SDS011;1016;48.770;9.154;2023-02-08T04:38:53;25.97;;;8.67;;
2023;SDS011;1016;48.770;9.154;2023-02-08T04:41:20;26.60;;;9.03;;
2023;SDS011;1016;48.770;9.154;2023-02-08T04:43:47;26.93;;;8.40;;
2023;SDS011;1016;48.770;9.154;2023-02-08T04:46:13;25.00;;;8.40;;
2023;SDS011;1016;48.770;9.154;2023-02-08T04:48:39;26.93;;;8.13;;
2023;SDS011;1016;48.770;9.154;2023-02-08T04:51:05;26.03;;;8.50;;
2023;SDS011;1016;48.770;9.154;2023-02-08T04:53:31;26.13;;;9.60;;
2023;SDS011;1016;48.770;9.154;2023-02-08T04:55:56;26.50;;;8.47;;
2023;SDS011;1016;48.770;9.154;2023-02-08T04:58:22;27.60;;;9.10;;
2023;SDS011;1016;48.770;9.154;2023-02-08T05:00:47;28.97;;;9.73;;
2023;SDS011;1016;48.770;9.154;2023-02-08T05:03:13;26.23;;;8.80;;
2023;SDS011;1016;48.770;9.154;2023-02-08T05:05:39;28.20;;;9.33;;
2023;SDS011;1016;48.770;9.154;2023-02-08T05:08:04;26.60;;;9.00;;
2023;SDS011;1016;48.770;9.154;2023-02-08T05:10:30;26.30;;;8.70;;
2023;SDS011;1016;48.770;9.154;2023-02-08T05:12:55;27.70;;;9.17;;
2023;SDS011;1016;48.770;9.154;2023-02-08T05:15:21;27.90;;;9.27;;
2023;SDS011;1016;48.770;9.154;2023-02-08T05:17:46;26.40;;;9.27;;
2023;SDS011;1016;48.770;9.154;2023-02-08T05:20:12;28.13;;;8.60;;
2023;SDS011;1016;48.770;9.154;2023-02-08T05:22:38;28.73;;;8.57;;
2023;SDS011;1016;48.770;9.154;2023-02-08T05:25:04;26.80;;;8.40;;
2023;SDS011;1016;48.770;9.154;2023-02-08T05:27:30;27.30;;;9.00;;
2023;SDS011;1016;48.770;9.154;2023-02-08T05:29:55;25.23;;;8.10;;
2023;SDS011;1016;48.770;9.154;2023-02-08T05:32:21;29.80;;;9.23;;
2023;SDS011;1016;48.770;9.154;2023-02-08T05:34:46;26.57;;;8.97;;
2023;SDS011;1016;48.770;9.154;2023-02-08T05:37:12;25.07;;;8.30;;
2023;SDS011;1016;48.770;9.154;2023-02-08T05:39:38;26.30;;;8.60;;
2023;SDS011;1016;48.770;9.154;2023-02-08T05:42:04;27.90;;;9.07;;
2023;SDS011;1016;48.770;9.154;2023-02-08T05:44:29;30.93;;;9.47;;
2023;SDS011;1016;48.770;9.154;2023-02-08T05:46:55;25.40;;;8.50;;
2023;SDS011;1016;48.770;9.154;2023-02-08T05:49:20;28.17;;;9.10;;
2023;SDS011;1016;48.770;9.154;2023-02-08T05:51:46;27.13;;;8.83;;
2023;SDS011;1016;48.770;9.154;2023-02-08T05:54:14;31.03;;;9.23;;
2023;SDS011;1016;48.770;9.154;2023-02-08T05:56:39;26.47;;;9.20;;
2023;SDS011;1016;48.770;9.154;2023-02-08T05:59:05;24.87;;;7.93;;
2023;SDS011;1016;48.770;9.154;2023-02-08T06:01:30;25.90;;;8.67;;
2023;SDS011;1016;48.770;9.154;2023-02-08T06:03:57;26.30;;;9.07;;
2023;SDS011;1016;48.770;9.154;2023-02-08T06:06:24;26.17;;;8.33;;
2023;SDS011;1016;48.770;9.154;2023-02-08T06:08:49;28.90;;;8.67;;
2023;SDS011;1016;48.770;9.154;2023-02-08T06:11:14;26.37;;;8.80;;
2023;SDS011;1016;48.770;9.154;2023-02-08T06:13:41;27.33;;;8.60;;
2023;SDS011;1016;48.770;9.154;2023-02-08T06:16:06;27.40;;;8.30;;
2023;SDS011;1016;48.770;9.154;2023-02-08T06:18:32;27.43;;;8.50;;
2023;SDS011;1016;48.770;9.154;2023-02-08T06:20:57;24.73;;;8.47;;
2023;SDS011;1016;48.770;9.154;2023-02-08T06:23:23;29.43;;;8.23;;
2023;SDS011;1016;48.770;9.154;2023-02-08T06:25:49;27.30;;;8.50;;
2023;SDS011;1016;48.770;9.154;2023-02-08T06:28:14;29.40;;;9.00;;
2023;SDS011;1016;48.770;9.154;2023-02-08T06:30:40;27.70;;;9.20;;
2023;SDS011;1016;48.770;9.154;2023-02-08T06:33:05;26.00;;;8.67;;
2023;SDS011;1016;48.770;9.154;2023-02-08T06:35:31;25.80;;;8.53;;
2023;SDS011;1016;48.770;9.154;2023-02-08T06:37:57;26.27;;;8.50;;
2023;SDS011;1016;48.770;9.154;2023-02-08T06:40:23;29.07;;;8.70;;
2023;SDS011;1016;48.770;9.154;2023-02-08T06:42:49;27.30;;;9.13;;
2023;SDS011;1016;48.770;9.154;2023-02-08T06:45:15;26.13;;;8.63;;
2023;SDS011;1016;48.770;9.154;2023-02-08T06:47:40;25.97;;;8.80;;
2023;SDS011;1016;48.770;9.154;2023-02-08T06:50:06;27.40;;;9.47;;
2023;SDS011;1016;48.770;9.154;2023-02-08T06:52:32;29.10;;;9.20;;
2023;SDS011;1016;48.770;9.154;2023-02-08T06:54:58;28.63;;;9.70;;
2023;SDS011;1016;48.770;9.154;2023-02-08T06:57:24;29.03;;;9.60;;
2023;SDS011;1016;48.770;9.154;2023-02-08T06:59:49;27.73;;;10.00;;
2023;SDS011;1016;48.770;9.154;2023-02-08T07:02:16;26.97;;;9.07;;
2023;SDS011;1016;48.770;9.154;2023-02-08T07:04:43;30.97;;;10.20;;
2023;SDS011;1016;48.770;9.154;2023-02-08T07:07:10;28.07;;;9.90;;
2023;SDS011;1016;48.770;9.154;2023-02-08T07:09:36;30.70;;;10.30;;
2023;SDS011;1016;48.770;9.154;2023-02-08T07:12:02;30.63;;;9.57;;
2023;SDS011;1016;48.770;9.154;2023-02-08T07:14:29;26.47;;;9.80;;
2023;SDS011;1016;48.770;9.154;2023-02-08T07:16:56;27.80;;;9.40;;
2023;SDS011;1016;48.770;9.154;2023-02-08T07:19:22;25.90;;;9.17;;
2023;SDS011;1016;48.770;9.154;2023-02-08T07:21:47;30.10;;;10.40;;
2023;SDS011;1016;48.770;9.154;2023-02-08T07:24:13;29.23;;;10.57;;
2023;SDS011;1016;48.770;9.154;2023-02-08T07:26:38;27.70;;;9.03;;
2023;SDS011;1016;48.770;9.154;2023-02-08T07:29:04;30.03;;;9.43;;
2023;SDS011;1016;48.770;9.154;2023-02-08T07:31:29;35.77;;;10.50;;
2023;SDS011;1016;48.770;9.154;2023-02-08T07:33:55;31.47;;;11.03;;
2023;SDS011;1016;48.770;9.154;2023-02-08T07:36:22;29.37;;;10.40;;
2023;SDS011;1016;48.770;9.154;2023-02-08T07:38:47;26.60;;;9.83;;
2023;SDS011;1016;48.770;9.154;2023-02-08T07:41:13;26.67;;;9.40;;
2023;SDS011;1016;48.770;9.154;2023-02-08T07:43:39;27.47;;;9.20;;
2023;SDS011;1016;48.770;9.154;2023-02-08T07:46:16;31.63;;;9.83;;
2023;SDS011;1016;48.770;9.154;2023-02-08T07:48:43;27.67;;;9.73;;
2023;SDS011;1016;48.770;9.154;2023-02-08T07:51:09;29.73;;;10.40;;
2023;SDS011;1016;48.770;9.154;2023-02-08T07:53:35;27.00;;;9.23;;
2023;SDS011;1016;48.770;9.154;2023-02-08T07:56:04;27.17;;;8.93;;
2023;SDS011;1016;48.770;9.154;2023-02-08T07:58:30;28.80;;;9.47;;
2023;SDS011;1016;48.770;9.154;2023-02-08T08:00:55;34.47;;;9.17;;
2023;SDS011;1016;48.770;9.154;2023-02-08T08:03:21;27.80;;;9.03;;
2023;SDS011;1016;48.770;9.154;2023-02-08T08:05:47;26.13;;;9.40;;
2023;SDS011;1016;48.770;9.154;2023-02-08T08:08:13;25.90;;;9.33;;
2023;SDS011;1016;48.770;9.154;2023-02-08T08:10:39;28.80;;;9.90;;
2023;SDS011;1016;48.770;9.154;2023-02-08T08:13:05;25.47;;;8.50;;
2023;SDS011;1016;48.770;9.154;2023-02-08T08:15:30;28.60;;;9.33;;
2023;SDS011;1016;48.770;9.154;2023-02-08T08:17:56;30.97;;;10.00;;
2023;SDS011;1016;48.770;9.154;2023-02-08T08:20:21;28.27;;;10.20;;
2023;SDS011;1016;48.770;9.154;2023-02-08T08:22:47;29.33;;;10.03;;
2023;SDS011;1016;48.770;9.154;2023-02-08T08:25:13;29.23;;;9.13;;
2023;SDS011;1016;48.770;9.154;2023-02-08T08:27:39;29.17;;;10.40;;
2023;SDS011;1016;48.770;9.154;2023-02-08T08:30:06;26.80;;;9.27;;
2023;SDS011;1016;48.770;9.154;2023-02-08T08:32:36;26.80;;;9.90;;
2023;SDS011;1016;48.770;9.154;2023-02-08T08:35:02;29.47;;;9.77;;
2023;SDS011;1016;48.770;9.154;2023-02-08T08:37:28;25.97;;;9.57;;
2023;SDS011;1016;48.770;9.154;2023-02-08T08:39:54;30.50;;;9.90;;
2023;SDS011;1016;48.770;9.154;2023-02-08T08:42:19;28.53;;;10.37;;
2023;SDS011;1016;48.770;9.154;2023-02-08T08:44:45;28.53;;;9.90;;
2023;SDS011;1016;48.770;9.154;2023-02-08T08:47:11;29.10;;;10.00;;
2023;SDS011;1016;48.770;9.154;2023-02-08T08:49:36;28.70;;;10.17;;
2023;SDS011;1016;48.770;9.154;2023-02-08T08:52:02;28.00;;;10.13;;
2023;SDS011;1016;48.770;9.154;2023-02-08T08:54:30;27.97;;;9.53;;
2023;SDS011;1016;48.770;9.154;2023-02-08T08:56:55;29.57;;;9.67;;
2023;SDS011;1016;48.770;9.154;2023-02-08T08:59:21;28.63;;;11.00;;
2023;SDS011;1016;48.770;9.154;2023-02-08T09:01:46;27.20;;;9.53;;
2023;SDS011;1016;48.770;9.154;2023-02-08T09:04:12;31.27;;;10.13;;
2023;SDS011;1016;48.770;9.154;2023-02-08T09:06:37;30.50;;;10.87;;
2023;SDS011;1016;48.770;9.154;2023-02-08T09:09:03;28.53;;;10.17;;
2023;SDS011;1016;48.770;9.154;2023-02-08T09:11:29;28.60;;;10.00;;
2023;SDS011;1016;48.770;9.154;2023-02-08T09:13:54;28.73;;;11.10;;
2023;SDS011;1016;48.770;9.154;2023-02-08T09:16:20;30.00;;;11.07;;
2023;SDS011;1016;48.770;9.154;2023-02-08T09:18:47;29.83;;;10.57;;
2023;SDS011;1016;48.770;9.154;2023-02-08T09:21:14;27.93;;;10.00;;
2023;SDS011;1016;48.770;9.154;2023-02-08T09:23:41;26.57;;;9.80;;
2023;SDS011;1016;48.770;9.154;2023-02-08T09:26:08;28.87;;;10.63;;
2023;SDS011;1016;48.770;9.154;2023-02-08T09:28:35;30.53;;;10.17;;
2023;SDS011;1016;48.770;9.154;2023-02-08T09:31:08;27.10;;;10.00;;
2023;SDS011;1016;48.770;9.154;2023-02-08T09:33:43;31.70;;;10.37;;
2023;SDS011;1016;48.770;9.154;2023-02-08T09:36:09;32.50;;;10.30;;
2023;SDS011;1016;48.770;9.154;2023-02-08T09:38:35;28.47;;;11.17;;
2023;SDS011;1016;48.770;9.154;2023-02-08T09:41:07;29.70;;;10.17;;
2023;SDS011;1016;48.770;9.154;2023-02-08T09:43:59;31.20;;;10.30;;
2023;SDS011;1016;48.770;9.154;2023-02-08T09:46:40;28.13;;;10.53;;
2023;SDS011;1016;48.770;9.154;2023-02-08T09:49:17;29.30;;;10.70;;
2023;SDS011;1016;48.770;9.154;2023-02-08T09:51:58;28.80;;;9.90;;
2023;SDS011;1016;48.770;9.154;2023-02-08T09:54:34;27.80;;;10.30;;
2023;SDS011;1016;48.770;9.154;2023-02-08T09:57:03;27.97;;;9.77;;
2023;SDS011;1016;48.770;9.154;2023-02-08T09:59:33;28.20;;;10.00;;
2023;SDS011;1016;48.770;9.154;2023-02-08T10:02:02;27.90;;;10.10;;
2023;SDS011;1016;48.770;9.154;2023-02-08T10:04:59;27.27;;;9.63;;
2023;SDS011;1016;48.770;9.154;2023-02-08T10:07:29;28.60;;;10.43;;
2023;SDS011;1016;48.770;9.154;2023-02-08T10:09:57;29.40;;;10.83;;
2023;SDS011;1016;48.770;9.154;2023-02-08T10:12:37;27.63;;;10.37;;
2023;SDS011;1016;48.770;9.154;2023-02-08T10:18:19;29.90;;;10.50;;
2023;SDS011;1016;48.770;9.154;2023-02-08T10:20:56;30.27;;;10.03;;
2023;SDS011;1016;48.770;9.154;2023-02-08T10:26:36;27.80;;;10.77;;
2023;SDS011;1016;48.770;9.154;2023-02-08T10:32:00;30.73;;;10.47;;
2023;SDS011;1016;48.770;9.154;2023-02-08T10:37:31;29.00;;;10.80;;
2023;SDS011;1016;48.770;9.154;2023-02-08T10:42:45;29.47;;;10.70;;
2023;SDS011;1016;48.770;9.154;2023-02-08T10:45:24;32.30;;;11.43;;
2023;SDS011;1016;48.770;9.154;2023-02-08T10:48:00;27.90;;;10.00;;
2023;SDS011;1016;48.770;9.154;2023-02-08T10:50:40;29.23;;;10.27;;
2023;SDS011;1016;48.770;9.154;2023-02-08T10:53:09;31.60;;;11.30;;
2023;SDS011;1016;48.770;9.154;2023-02-08T10:55:41;30.13;;;11.00;;
2023;SDS011;1016;48.770;9.154;2023-02-08T10:58:09;28.20;;;10.67;;
2023;SDS011;1016;48.770;9.154;2023-02-08T11:00:39;27.93;;;10.30;;
2023;SDS011;1016;48.770;9.154;2023-02-08T11:03:13;30.37;;;10.90;;
2023;SDS011;1016;48.770;9.154;2023-02-08T11:05:44;27.83;;;10.37;;
2023;SDS011;1016;48.770;9.154;2023-02-08T11:08:11;30.70;;;10.00;;
2023;SDS011;1016;48.770;9.154;2023-02-08T11:10:57;27.37;;;10.80;;
2023;SDS011;1016;48.770;9.154;2023-02-08T11:13:40;28.83;;;11.03;;
2023;SDS011;1016;48.770;9.154;2023-02-08T11:16:10;28.47;;;11.20;;
2023;SDS011;1016;48.770;9.154;2023-02-08T11:18:46;27.27;;;10.10;;
2023;SDS011;1016;48.770;9.154;2023-02-08T11:21:24;28.07;;;10.77;;
2023;SDS011;1016;48.770;9.154;2023-02-08T11:23:51;27.93;;;10.90;;
2023;SDS011;1016;48.770;9.154;2023-02-08T11:26:20;26.77;;;9.37;;
2023;SDS011;1016;48.770;9.154;2023-02-08T11:32:13;27.57;;;10.07;;
2023;SDS011;1016;48.770;9.154;2023-02-08T11:34:43;26.03;;;9.43;;
2023;SDS011;1016;48.770;9.154;2023-02-08T11:37:16;26.80;;;9.27;;
2023;SDS011;1016;48.770;9.154;2023-02-08T11:39:51;28.70;;;9.40;;
2023;SDS011;1016;48.770;9.154;2023-02-08T11:42:34;27.50;;;8.67;;
2023;SDS011;1016;48.770;9.154;2023-02-08T11:45:02;26.70;;;9.17;;
2023;SDS011;1016;48.770;9.154;2023-02-08T11:47:29;26.97;;;9.90;;
2023;SDS011;1016;48.770;9.154;2023-02-08T11:49:58;26.30;;;9.53;;
2023;SDS011;1016;48.770;9.154;2023-02-08T11:52:27;24.47;;;9.00;;
2023;SDS011;1016;48.770;9.154;2023-02-08T11:57:52;26.47;;;9.33;;
2023;SDS011;1016;48.770;9.154;2023-02-08T12:00:22;28.40;;;9.63;;
2023;SDS011;1016;48.770;9.154;2023-02-08T12:02:54;27.07;;;9.17;;
2023;SDS011;1016;48.770;9.154;2023-02-08T12:05:28;27.10;;;9.87;;
2023;SDS011;1016;48.770;9.154;2023-02-08T12:11:19;30.10;;;10.47;;
2023;SDS011;1016;48.770;9.154;2023-02-08T12:19:32;26.17;;;9.27;;
2023;SDS011;1016;48.770;9.154;2023-02-08T12:27:21;30.03;;;7.93;;
2023;SDS011;1016;48.770;9.154;2023-02-08T12:36:06;27.90;;;8.40;;
2023;SDS011;1016;48.770;9.154;2023-02-08T12:44:02;27.03;;;8.67;;
2023;SDS011;1016;48.770;9.154;2023-02-08T12:46:47;29.33;;;8.23;;
2023;SDS011;1016;48.770;9.154;2023-02-08T12:52:16;24.47;;;8.27;;
2023;SDS011;1016;48.770;9.154;2023-02-08T12:55:20;23.50;;;7.60;;
2023;SDS011;1016;48.770;9.154;2023-02-08T12:57:55;24.30;;;7.50;;
2023;SDS011;1016;48.770;9.154;2023-02-08T13:05:51;28.37;;;8.03;;
2023;SDS011;1016;48.770;9.154;2023-02-08T13:08:23;24.97;;;8.07;;
2023;SDS011;1016;48.770;9.154;2023-02-08T13:11:22;28.33;;;8.20;;
2023;SDS011;1016;48.770;9.154;2023-02-08T13:14:05;24.70;;;7.67;;
2023;SDS011;1016;48.770;9.154;2023-02-08T13:16:42;26.27;;;8.40;;
2023;SDS011;1016;48.770;9.154;2023-02-08T13:19:56;24.00;;;7.83;;
2023;SDS011;1016;48.770;9.154;2023-02-08T13:22:07;23.73;;;7.90;;
2023;SDS011;1016;48.770;9.154;2023-02-08T13:24:40;25.10;;;8.40;;
2023;SDS011;1016;48.770;9.154;2023-02-08T13:27:14;23.80;;;8.30;;
2023;SDS011;1016;48.770;9.154;2023-02-08T13:29:43;25.50;;;8.50;;
2023;SDS011;1016;48.770;9.154;2023-02-08T13:32:30;24.97;;;8.33;;
2023;SDS011;1016;48.770;9.154;2023-02-08T13:38:15;28.50;;;10.40;;
2023;SDS011;1016;48.770;9.154;2023-02-08T13:40:46;24.50;;;8.00;;
2023;SDS011;1016;48.770;9.154;2023-02-08T13:43:24;25.13;;;7.80;;
2023;SDS011;1016;48.770;9.154;2023-02-08T13:45:59;25.63;;;7.90;;
2023;SDS011;1016;48.770;9.154;2023-02-08T13:48:26;23.23;;;6.80;;
2023;SDS011;1016;48.770;9.154;2023-02-08T13:56:39;23.77;;;7.53;;
2023;SDS011;1016;48.770;9.154;2023-02-08T13:59:27;25.10;;;7.73;;
2023;SDS011;1016;48.770;9.154;2023-02-08T14:02:31;24.23;;;6.90;;
2023;SDS011;1016;48.770;9.154;2023-02-08T14:04:51;24.37;;;6.97;;
2023;SDS011;1016;48.770;9.154;2023-02-08T14:07:21;22.30;;;6.57;;
2023;SDS011;1016;48.770;9.154;2023-02-08T14:10:05;21.67;;;6.93;;
2023;SDS011;1016;48.770;9.154;2023-02-08T14:12:51;24.53;;;7.00;;
2023;SDS011;1016;48.770;9.154;2023-02-08T14:15:38;24.37;;;6.63;;
2023;SDS011;1016;48.770;9.154;2023-02-08T14:18:04;25.10;;;6.70;;
2023;SDS011;1016;48.770;9.154;2023-02-08T14:20:54;24.90;;;6.50;;
2023;SDS011;1016;48.770;9.154;2023-02-08T14:23:27;23.67;;;6.63;;
2023;SDS011;1016;48.770;9.154;2023-02-08T14:25:55;26.10;;;7.80;;
2023;SDS011;1016;48.770;9.154;2023-02-08T14:30:57;24.10;;;6.60;;
2023;SDS011;1016;48.770;9.154;2023-02-08T14:33:26;25.23;;;7.73;;
2023;SDS011;1016;48.770;9.154;2023-02-08T14:35:56;23.57;;;7.00;;
2023;SDS011;1016;48.770;9.154;2023-02-08T14:40:49;24.00;;;7.53;;
2023;SDS011;1016;48.770;9.154;2023-02-08T14:45:48;24.03;;;7.20;;
2023;SDS011;1016;48.770;9.154;2023-02-08T14:48:26;24.37;;;7.13;;
2023;SDS011;1016;48.770;9.154;2023-02-08T14:50:59;25.90;;;7.20;;
2023;SDS011;1016;48.770;9.154;2023-02-08T14:53:42;25.50;;;8.27;;
2023;SDS011;1016;48.770;9.154;2023-02-08T14:56:35;24.43;;;8.00;;
2023;SDS011;1016;48.770;9.154;2023-02-08T14:59:15;28.50;;;8.47;;
2023;SDS011;1016;48.770;9.154;2023-02-08T15:01:45;25.97;;;8.27;;
2023;SDS011;1016;48.770;9.154;2023-02-08T15:04:17;24.37;;;7.63;;
2023;SDS011;1016;48.770;9.154;2023-02-08T15:06:51;26.07;;;8.33;;
2023;SDS011;1016;48.770;9.154;2023-02-08T15:09:31;24.67;;;7.50;;
2023;SDS011;1016;48.770;9.154;2023-02-08T15:12:02;26.90;;;8.53;;
2023;SDS011;1016;48.770;9.154;2023-02-08T15:14:33;25.53;;;9.13;;
2023;SDS011;1016;48.770;9.154;2023-02-08T15:17:00;25.47;;;8.67;;
2023;SDS011;1016;48.770;9.154;2023-02-08T15:19:28;25.90;;;8.87;;
2023;SDS011;1016;48.770;9.154;2023-02-08T15:24:52;25.90;;;8.10;;
2023;SDS011;1016;48.770;9.154;2023-02-08T15:27:20;27.10;;;9.13;;
2023;SDS011;1016;48.770;9.154;2023-02-08T15:29:51;26.43;;;8.57;;
2023;SDS011;1016;48.770;9.154;2023-02-08T15:32:18;25.63;;;8.80;;
2023;SDS011;1016;48.770;9.154;2023-02-08T15:34:50;24.77;;;8.87;;
2023;SDS011;1016;48.770;9.154;2023-02-08T15:37:19;25.73;;;8.43;;
2023;SDS011;1016;48.770;9.154;2023-02-08T15:39:44;27.70;;;10.37;;
2023;SDS011;1016;48.770;9.154;2023-02-08T15:42:16;25.73;;;9.10;;
2023;SDS011;1016;48.770;9.154;2023-02-08T15:44:44;27.33;;;9.93;;
2023;SDS011;1016;48.770;9.154;2023-02-08T15:47:16;27.03;;;9.07;;
2023;SDS011;1016;48.770;9.154;2023-02-08T15:49:46;27.23;;;9.93;;
2023;SDS011;1016;48.770;9.154;2023-02-08T15:52:15;29.80;;;11.13;;
2023;SDS011;1016;48.770;9.154;2023-02-08T15:54:43;28.20;;;10.67;;
2023;SDS011;1016;48.770;9.154;2023-02-08T16:00:00;29.00;;;10.73;;
2023;SDS011;1016;48.770;9.154;2023-02-08T16:02:29;27.47;;;10.67;;
2023;SDS011;1016;48.770;9.154;2023-02-08T16:04:59;26.47;;;10.00;;
2023;SDS011;1016;48.770;9.154;2023-02-08T16:07:27;27.60;;;11.30;;
2023;SDS011;1016;48.770;9.154;2023-02-08T16:09:57;27.70;;;10.80;;
2023;SDS011;1016;48.770;9.154;2023-02-08T16:12:23;31.97;;;11.17;;
2023;SDS011;1016;48.770;9.154;2023-02-08T16:14:51;28.33;;;10.73;;
2023;SDS011;1016;48.770;9.154;2023-02-08T16:22:59;30.63;;;11.37;;
2023;SDS011;1016;48.770;9.154;2023-02-08T16:25:34;27.03;;;10.53;;
2023;SDS011;1016;48.770;9.154;2023-02-08T16:28:25;29.63;;;11.00;;
2023;SDS011;1016;48.770;9.154;2023-02-08T16:30:53;28.27;;;11.40;;
2023;SDS011;1016;48.770;9.154;2023-02-08T16:33:21;30.10;;;12.67;;
2023;SDS011;1016;48.770;9.154;2023-02-08T16:35:47;27.87;;;11.23;;
2023;SDS011;1016;48.770;9.154;2023-02-08T16:38:16;28.30;;;10.77;;
2023;SDS011;1016;48.770;9.154;2023-02-08T16:40:47;31.27;;;11.80;;
2023;SDS011;1016;48.770;9.154;2023-02-08T16:48:35;28.53;;;10.90;;
2023;SDS011;1016;48.770;9.154;2023-02-08T16:51:04;28.80;;;11.10;;
2023;SDS011;1016;48.770;9.154;2023-02-08T16:53:31;29.33;;;12.23;;
2023;SDS011;1016;48.770;9.154;2023-02-08T16:55:57;27.20;;;10.97;;
2023;SDS011;1016;48.770;9.154;2023-02-08T16:58:24;31.17;;;12.93;;
2023;SDS011;1016;48.770;9.154;2023-02-08T17:00:50;31.97;;;12.03;;
2023;SDS011;1016;48.770;9.154;2023-02-08T17:03:16;30.93;;;12.60;;
2023;SDS011;1016;48.770;9.154;2023-02-08T17:05:42;29.77;;;12.03;;
2023;SDS011;1016;48.770;9.154;2023-02-08T17:08:13;30.17;;;11.60;;
2023;SDS011;1016;48.770;9.154;2023-02-08T17:10:40;30.53;;;11.37;;